createdAt,value
2019-04-19T00:00:56.020Z,75.88
2019-04-19T00:02:02.413Z,76.03
2019-04-19T00:03:00.321Z,76.08
2019-04-19T00:04:11.112Z,76.15
2019-04-19T00:05:09.409Z,76.21
2019-04-19T00:06:19.936Z,76.39
2019-04-19T00:07:21.455Z,76.66
2019-04-19T00:08:37.309Z,76.59
2019-04-19T00:09:34.606Z,76.61
2019-04-19T00:10:38.406Z,76.64
2019-04-19T00:11:43.443Z,76.68
2019-04-19T00:12:48.285Z,76.67
2019-04-19T00:13:43.028Z,76.69
2019-04-19T00:14:46.827Z,76.70
2019-04-19T00:15:51.893Z,76.70
2019-04-19T00:16:55.558Z,76.77
2019-04-19T00:18:05.700Z,76.84
2019-04-19T00:19:28.966Z,76.81
2019-04-19T00:20:36.472Z,76.83
2019-04-19T00:21:28.917Z,76.77
2019-04-19T00:22:33.962Z,76.77
2019-04-19T00:23:31.124Z,76.77
2019-04-19T00:24:24.896Z,76.86
2019-04-19T00:25:30.261Z,76.92
2019-04-19T00:26:33.858Z,76.96
2019-04-19T00:27:44.468Z,76.99
2019-04-19T00:28:50.576Z,77.06
2019-04-19T00:29:54.366Z,77.10
2019-04-19T00:31:00.338Z,77.19
2019-04-19T00:32:14.322Z,77.26
2019-04-19T00:33:12.294Z,77.27
2019-04-19T00:34:03.231Z,77.30
2019-04-19T00:35:07.443Z,77.37
2019-04-19T00:36:13.592Z,77.35
2019-04-19T00:37:16.443Z,77.36
2019-04-19T00:38:35.735Z,77.44
2019-04-19T00:39:38.480Z,77.38
2019-04-19T00:40:38.117Z,77.38
2019-04-19T00:41:47.515Z,77.38
2019-04-19T00:42:48.461Z,77.38
2019-04-19T00:43:56.251Z,77.42
2019-04-19T00:45:05.287Z,77.39
2019-04-19T00:46:12.501Z,77.37
2019-04-19T00:47:11.992Z,77.35
2019-04-19T00:48:08.650Z,77.36
2019-04-19T00:49:14.550Z,77.31
2019-04-19T00:50:18.459Z,77.34
2019-04-19T00:51:20.870Z,77.42
2019-04-19T00:52:34.258Z,77.46
2019-04-19T00:53:30.696Z,77.45
2019-04-19T00:54:30.035Z,77.49
2019-04-19T00:55:40.669Z,77.38
2019-04-19T00:56:42.671Z,77.35
2019-04-19T00:57:42.328Z,77.18
2019-04-19T00:58:48.378Z,77.12
2019-04-19T00:59:47.164Z,77.02
2019-04-19T01:00:49.126Z,76.96
2019-04-19T01:01:56.783Z,77.03
2019-04-19T01:02:58.290Z,77.05
2019-04-19T01:04:01.141Z,77.08
2019-04-19T01:05:10.543Z,77.06
2019-04-19T01:06:14.143Z,77.20
2019-04-19T01:07:21.127Z,77.09
2019-04-19T01:08:21.261Z,77.13
2019-04-19T01:09:35.613Z,77.16
2019-04-19T01:10:37.085Z,77.17
2019-04-19T01:11:42.759Z,77.21
2019-04-19T01:12:52.609Z,77.20
2019-04-19T01:13:56.208Z,77.22
2019-04-19T01:14:50.899Z,77.25
2019-04-19T01:15:59.820Z,77.28
2019-04-19T01:17:06.441Z,77.30
2019-04-19T01:18:11.695Z,77.29
2019-04-19T01:19:06.800Z,77.36
2019-04-19T01:20:07.010Z,77.40
2019-04-19T01:21:09.164Z,77.45
2019-04-19T01:22:17.354Z,77.45
2019-04-19T01:23:18.253Z,77.60
2019-04-19T01:24:29.179Z,77.54
2019-04-19T01:25:27.807Z,77.54
2019-04-19T01:26:35.759Z,77.56
2019-04-19T01:27:35.995Z,77.60
2019-04-19T01:28:38.812Z,77.58
2019-04-19T01:29:45.084Z,77.59
2019-04-19T01:30:47.470Z,77.62
2019-04-19T01:31:58.099Z,77.62
2019-04-19T01:32:59.006Z,77.68
2019-04-19T01:34:01.928Z,77.72
2019-04-19T01:35:09.243Z,77.80
2019-04-19T01:36:08.186Z,77.80
2019-04-19T01:37:17.635Z,77.83
2019-04-19T01:38:15.493Z,77.85
2019-04-19T01:39:32.230Z,77.90
2019-04-19T01:40:43.976Z,77.93
2019-04-19T01:41:43.558Z,77.92
2019-04-19T01:42:50.718Z,77.94
2019-04-19T01:43:54.931Z,77.95
2019-04-19T01:44:59.296Z,77.98
2019-04-19T01:45:59.429Z,78.06
2019-04-19T01:47:06.578Z,78.08
2019-04-19T01:48:07.556Z,78.09
2019-04-19T01:49:11.877Z,78.12
2019-04-19T01:50:14.230Z,78.08
2019-04-19T01:51:20.040Z,78.16
2019-04-19T01:52:36.845Z,78.13
2019-04-19T01:53:28.168Z,78.14
2019-04-19T01:54:44.192Z,78.10
2019-04-19T01:55:25.679Z,78.14
2019-04-19T01:56:28.375Z,78.17
2019-04-19T01:57:32.403Z,78.25
2019-04-19T01:58:38.881Z,78.28
2019-04-19T01:59:45.874Z,78.28
2019-04-19T02:00:46.701Z,78.32
2019-04-19T02:01:55.490Z,78.39
2019-04-19T02:02:56.692Z,78.41
2019-04-19T02:03:57.088Z,78.42
2019-04-19T02:05:06.873Z,78.34
2019-04-19T02:06:10.695Z,78.33
2019-04-19T02:07:16.497Z,78.29
2019-04-19T02:08:15.929Z,78.38
2019-04-19T02:09:29.233Z,78.27
2019-04-19T02:10:38.563Z,78.14
2019-04-19T02:11:36.021Z,78.16
2019-04-19T02:12:42.149Z,78.18
2019-04-19T02:13:45.990Z,78.19
2019-04-19T02:14:48.483Z,78.19
2019-04-19T02:15:48.171Z,78.26
2019-04-19T02:16:52.609Z,78.24
2019-04-19T02:17:54.021Z,78.29
2019-04-19T02:19:05.322Z,78.28
2019-04-19T02:20:02.736Z,78.24
2019-04-19T02:21:04.441Z,78.21
2019-04-19T02:22:16.933Z,78.18
2019-04-19T02:23:16.082Z,78.18
2019-04-19T02:24:17.189Z,78.14
2019-04-19T02:25:26.115Z,78.18
2019-04-19T02:26:26.936Z,78.26
2019-04-19T02:27:34.976Z,78.26
2019-04-19T02:28:38.347Z,78.22
2019-04-19T02:29:38.581Z,78.18
2019-04-19T02:30:58.205Z,78.24
2019-04-19T02:32:13.381Z,78.17
2019-04-19T02:33:15.372Z,78.10
2019-04-19T02:34:30.852Z,78.23
2019-04-19T02:35:36.650Z,78.27
2019-04-19T02:36:36.963Z,78.37
2019-04-19T02:37:34.527Z,78.29
2019-04-19T02:38:46.848Z,78.32
2019-04-19T02:39:45.470Z,78.36
2019-04-19T02:41:08.119Z,78.36
2019-04-19T02:43:03.883Z,78.49
2019-04-19T02:47:18.088Z,78.65
2019-04-19T02:48:16.404Z,78.72
2019-04-19T02:49:28.535Z,78.82
2019-04-19T02:50:40.226Z,78.65
2019-04-19T02:51:34.695Z,78.79
2019-04-19T02:52:40.280Z,78.94
2019-04-19T02:53:39.252Z,78.93
2019-04-19T02:54:40.569Z,79.07
2019-04-19T02:56:03.708Z,79.25
2019-04-19T02:57:55.113Z,79.25
2019-04-19T02:59:04.712Z,79.25
2019-04-19T03:00:28.270Z,79.30
2019-04-19T03:01:14.691Z,79.20
2019-04-19T03:02:24.675Z,79.27
2019-04-19T03:03:13.348Z,79.09
2019-04-19T03:04:42.353Z,79.07
2019-04-19T03:05:22.696Z,79.08
2019-04-19T03:06:16.467Z,79.08
2019-04-19T03:07:08.843Z,78.85
2019-04-19T03:08:10.508Z,78.88
2019-04-19T03:09:15.246Z,78.84
2019-04-19T03:10:22.370Z,79.01
2019-04-19T03:11:35.387Z,79.00
2019-04-19T03:12:51.641Z,78.93
2019-04-19T03:13:46.429Z,78.83
2019-04-19T03:14:54.630Z,78.86
2019-04-19T03:15:54.766Z,78.60
2019-04-19T03:17:05.625Z,78.41
2019-04-19T03:18:09.294Z,78.58
2019-04-19T03:19:05.811Z,78.61
2019-04-19T03:20:15.169Z,78.74
2019-04-19T03:21:11.499Z,78.81
2019-04-19T03:22:25.598Z,78.95
2019-04-19T03:23:23.290Z,79.03
2019-04-19T03:24:29.856Z,79.03
2019-04-19T03:25:32.957Z,79.02
2019-04-19T03:26:39.944Z,78.96
2019-04-19T03:27:37.616Z,79.12
2019-04-19T03:28:38.500Z,79.19
2019-04-19T03:29:39.051Z,78.97
2019-04-19T03:31:10.371Z,78.99
2019-04-19T03:32:37.712Z,79.03
2019-04-19T03:34:18.609Z,78.89
2019-04-19T03:35:06.531Z,78.88
2019-04-19T03:36:15.079Z,78.88
2019-04-19T03:37:25.580Z,78.88
2019-04-19T03:38:30.190Z,78.91
2019-04-19T03:39:37.198Z,78.92
2019-04-19T03:40:34.802Z,78.75
2019-04-19T03:41:57.129Z,78.64
2019-04-19T03:42:47.182Z,78.69
2019-04-19T03:43:47.868Z,78.79
2019-04-19T03:45:00.442Z,78.76
2019-04-19T03:46:01.791Z,78.86
2019-04-19T03:47:04.927Z,78.88
2019-04-19T03:48:09.221Z,78.78
2019-04-19T03:49:21.983Z,78.72
2019-04-19T03:50:16.175Z,78.83
2019-04-19T03:51:18.538Z,78.80
2019-04-19T03:52:26.649Z,78.80
2019-04-19T03:53:36.433Z,78.92
2019-04-19T03:54:28.290Z,78.98
2019-04-19T03:55:39.092Z,78.95
2019-04-19T03:56:38.145Z,78.95
2019-04-19T03:57:39.142Z,79.05
2019-04-19T03:58:32.188Z,79.12
2019-04-19T03:59:35.251Z,79.09
2019-04-19T04:00:38.940Z,79.12
2019-04-19T04:01:48.384Z,79.22
2019-04-19T04:02:49.358Z,79.22
2019-04-19T04:03:56.624Z,79.38
2019-04-19T04:05:01.909Z,79.45
2019-04-19T04:06:00.106Z,79.46
2019-04-19T04:07:10.722Z,79.39
2019-04-19T04:08:13.176Z,79.31
2019-04-19T04:09:13.889Z,79.04
2019-04-19T04:10:24.033Z,78.92
2019-04-19T04:11:24.884Z,78.97
2019-04-19T04:12:40.553Z,78.67
2019-04-19T04:13:39.196Z,78.62
2019-04-19T04:14:50.369Z,78.46
2019-04-19T04:15:53.061Z,78.33
2019-04-19T04:16:47.156Z,78.15
2019-04-19T04:17:47.738Z,78.09
2019-04-19T04:18:51.364Z,77.86
2019-04-19T04:19:56.668Z,77.89
2019-04-19T04:21:00.700Z,77.68
2019-04-19T04:22:07.619Z,77.74
2019-04-19T04:23:13.620Z,77.72
2019-04-19T04:24:21.063Z,77.77
2019-04-19T04:25:23.450Z,77.62
2019-04-19T04:26:32.655Z,77.72
2019-04-19T04:27:35.999Z,77.82
2019-04-19T04:28:42.653Z,77.87
2019-04-19T04:29:40.080Z,77.67
2019-04-19T04:30:54.098Z,77.58
2019-04-19T04:31:55.888Z,77.43
2019-04-19T04:32:57.296Z,77.46
2019-04-19T04:34:02.768Z,77.38
2019-04-19T04:35:10.432Z,77.38
2019-04-19T04:36:21.151Z,77.31
2019-04-19T04:37:20.585Z,77.34
2019-04-19T04:38:16.867Z,77.57
2019-04-19T04:39:11.345Z,77.62
2019-04-19T04:40:16.602Z,77.69
2019-04-19T04:41:23.584Z,77.83
2019-04-19T04:42:31.523Z,77.84
2019-04-19T04:43:39.185Z,77.95
2019-04-19T04:44:50.669Z,78.03
2019-04-19T04:46:03.366Z,78.05
2019-04-19T04:47:02.860Z,78.12
2019-04-19T04:47:59.856Z,78.12
2019-04-19T04:49:15.464Z,78.09
2019-04-19T04:50:19.451Z,78.03
2019-04-19T04:51:18.360Z,78.18
2019-04-19T04:52:09.937Z,78.12
2019-04-19T04:53:06.797Z,78.19
2019-04-19T04:54:10.437Z,78.20
2019-04-19T04:55:15.656Z,78.20
2019-04-19T04:56:19.469Z,78.17
2019-04-19T04:57:31.817Z,78.09
2019-04-19T04:58:33.886Z,77.93
2019-04-19T04:59:34.599Z,77.88
2019-04-19T05:00:47.272Z,77.81
2019-04-19T05:01:50.682Z,77.75
2019-04-19T05:03:00.346Z,77.68
2019-04-19T05:05:10.972Z,77.61
2019-04-19T05:06:16.787Z,77.57
2019-04-19T05:07:22.988Z,77.57
2019-04-19T05:08:25.517Z,77.57
2019-04-19T05:09:30.421Z,77.56
2019-04-19T05:10:28.407Z,77.47
2019-04-19T05:11:33.989Z,77.45
2019-04-19T05:12:59.071Z,77.41
2019-04-19T05:13:43.725Z,77.35
2019-04-19T05:14:45.035Z,77.23
2019-04-19T05:15:55.359Z,77.17
2019-04-19T05:17:12.511Z,77.19
2019-04-19T05:18:23.686Z,77.15
2019-04-19T05:19:06.607Z,77.11
2019-04-19T05:20:13.079Z,77.02
2019-04-19T05:21:17.991Z,77.03
2019-04-19T05:22:16.809Z,76.79
2019-04-19T05:23:22.789Z,76.76
2019-04-19T05:24:26.697Z,76.71
2019-04-19T05:25:35.778Z,76.76
2019-04-19T05:26:38.675Z,76.89
2019-04-19T05:27:39.004Z,76.84
2019-04-19T05:28:41.005Z,76.50
2019-04-19T05:29:36.444Z,76.23
2019-04-19T05:30:43.169Z,76.29
2019-04-19T05:31:46.074Z,76.23
2019-04-19T05:32:50.869Z,75.92
2019-04-19T05:34:09.667Z,75.77
2019-04-19T05:35:07.052Z,75.31
2019-04-19T05:36:13.806Z,75.13
2019-04-19T05:37:14.076Z,74.76
2019-04-19T05:38:23.351Z,74.49
2019-04-19T05:39:31.545Z,73.98
2019-04-19T05:40:27.737Z,73.38
2019-04-19T05:41:29.712Z,73.09
2019-04-19T05:42:42.903Z,71.41
2019-04-19T05:43:57.314Z,69.55
2019-04-19T05:45:00.790Z,67.76
2019-04-19T05:46:01.660Z,66.91
2019-04-19T05:47:07.655Z,65.72
2019-04-19T05:47:53.922Z,64.16
2019-04-19T05:49:02.677Z,64.06
2019-04-19T05:50:16.953Z,63.47
2019-04-19T05:51:25.603Z,62.82
2019-04-19T05:52:19.242Z,61.42
2019-04-19T05:53:16.488Z,61.95
2019-04-19T05:54:11.919Z,61.86
2019-04-19T05:55:13.468Z,61.89
2019-04-19T05:56:17.893Z,61.19
2019-04-19T05:57:40.168Z,61.76
2019-04-19T05:58:43.329Z,61.87
2019-04-19T05:59:43.571Z,61.36
2019-04-19T06:00:51.808Z,61.45
2019-04-19T06:01:55.090Z,61.31
2019-04-19T06:02:54.699Z,61.32
2019-04-19T06:04:07.588Z,60.64
2019-04-19T06:05:16.479Z,60.52
2019-04-19T06:06:19.932Z,60.67
2019-04-19T06:07:17.557Z,59.85
2019-04-19T06:08:12.166Z,60.32
2019-04-19T06:09:09.136Z,59.54
2019-04-19T06:10:14.676Z,58.95
2019-04-19T06:11:23.144Z,59.27
2019-04-19T06:12:26.821Z,59.13
2019-04-19T06:13:25.975Z,58.85
2019-04-19T06:15:55.832Z,58.66
2019-04-19T06:16:51.572Z,58.69
2019-04-19T06:18:00.426Z,59.10
2019-04-19T06:19:08.893Z,58.32
2019-04-19T06:20:13.921Z,58.89
2019-04-19T06:21:22.227Z,58.54
2019-04-19T06:22:10.033Z,58.59
2019-04-19T06:23:23.550Z,58.26
2019-04-19T06:24:27.604Z,58.22
2019-04-19T06:25:39.112Z,58.21
2019-04-19T06:26:58.887Z,58.93
2019-04-19T06:27:53.113Z,58.94
2019-04-19T06:28:59.788Z,57.68
2019-04-19T06:29:50.514Z,58.44
2019-04-19T06:30:53.469Z,58.75
2019-04-19T06:32:05.673Z,56.69
2019-04-19T06:33:05.178Z,57.82
2019-04-19T06:34:13.012Z,58.11
2019-04-19T06:35:06.877Z,58.69
2019-04-19T06:36:01.011Z,58.74
2019-04-19T06:37:08.430Z,58.36
2019-04-19T06:38:05.502Z,58.86
2019-04-19T06:39:09.909Z,59.29
2019-04-19T06:40:21.147Z,59.18
2019-04-19T06:41:22.166Z,57.67
2019-04-19T06:42:31.893Z,58.40
2019-04-19T06:43:42.247Z,59.48
2019-04-19T06:44:51.249Z,58.45
2019-04-19T06:45:55.575Z,58.01
2019-04-19T06:46:56.298Z,58.23
2019-04-19T06:47:54.241Z,58.97
2019-04-19T06:48:59.052Z,56.48
2019-04-19T06:49:54.550Z,58.06
2019-04-19T06:51:01.847Z,56.08
2019-04-19T06:52:09.108Z,56.75
2019-04-19T06:53:05.988Z,57.50
2019-04-19T06:54:12.309Z,57.63
2019-04-19T06:55:23.318Z,57.34
2019-04-19T06:56:25.686Z,57.25
2019-04-19T06:57:29.046Z,56.31
2019-04-19T06:58:40.363Z,55.95
2019-04-19T06:59:50.402Z,55.89
2019-04-19T07:00:51.979Z,55.83
2019-04-19T07:01:48.409Z,57.10
2019-04-19T07:02:45.537Z,56.89
2019-04-19T07:03:49.472Z,55.77
2019-04-19T07:05:08.900Z,54.06
2019-04-19T07:06:14.546Z,55.38
2019-04-19T07:07:23.334Z,56.70
2019-04-19T07:08:51.461Z,56.37
2019-04-19T07:09:37.506Z,56.77
2019-04-19T07:10:42.662Z,55.58
2019-04-19T07:11:41.059Z,56.48
2019-04-19T07:12:43.338Z,55.53
2019-04-19T07:13:40.458Z,54.66
2019-04-19T07:14:34.994Z,55.63
2019-04-19T07:16:04.211Z,53.74
2019-04-19T07:17:04.509Z,54.49
2019-04-19T07:18:00.702Z,54.65
2019-04-19T07:19:10.473Z,54.11
2019-04-19T07:20:12.289Z,54.70
2019-04-19T07:21:16.132Z,54.56
2019-04-19T07:22:15.378Z,55.16
2019-04-19T07:23:24.250Z,54.94
2019-04-19T07:24:43.461Z,54.52
2019-04-19T07:25:42.708Z,54.67
2019-04-19T07:27:37.937Z,53.27
2019-04-19T07:28:33.265Z,53.59
2019-04-19T07:29:33.624Z,55.63
2019-04-19T07:30:41.914Z,55.42
2019-04-19T07:31:43.027Z,56.08
2019-04-19T07:32:55.547Z,55.10
2019-04-19T07:34:03.540Z,54.66
2019-04-19T07:35:10.234Z,53.44
2019-04-19T07:36:17.275Z,53.10
2019-04-19T07:37:22.050Z,52.55
2019-04-19T07:38:31.351Z,52.10
2019-04-19T07:39:27.705Z,52.94
2019-04-19T07:40:37.329Z,53.11
2019-04-19T07:41:39.815Z,53.29
2019-04-19T07:42:45.537Z,53.68
2019-04-19T07:43:44.667Z,54.87
2019-04-19T07:44:45.305Z,54.41
2019-04-19T07:46:02.753Z,54.10
2019-04-19T07:47:03.524Z,51.88
2019-04-19T07:47:57.882Z,52.68
2019-04-19T07:48:51.562Z,52.90
2019-04-19T07:50:07.851Z,52.37
2019-04-19T07:51:05.793Z,52.68
2019-04-19T07:52:12.503Z,52.08
2019-04-19T07:53:10.296Z,50.53
2019-04-19T07:54:15.720Z,51.70
2019-04-19T07:55:19.209Z,51.98
2019-04-19T07:56:37.136Z,52.64
2019-04-19T07:58:20.408Z,51.39
2019-04-19T07:58:58.439Z,52.06
2019-04-19T08:00:04.594Z,52.05
2019-04-19T08:01:11.973Z,53.22
2019-04-19T08:02:13.018Z,51.96
2019-04-19T08:03:17.539Z,51.47
2019-04-19T08:04:38.333Z,51.98
2019-04-19T08:07:41.314Z,52.31
2019-04-19T08:09:43.828Z,51.93
2019-04-19T08:11:58.626Z,51.53
2019-04-19T08:12:54.546Z,53.10
2019-04-19T08:15:06.504Z,50.40
2019-04-19T08:16:04.568Z,48.76
2019-04-19T08:18:27.658Z,48.46
2019-04-19T08:27:39.813Z,47.93
2019-04-19T08:28:43.393Z,47.35
2019-04-19T08:29:46.908Z,47.52
2019-04-19T08:30:46.698Z,47.34
2019-04-19T08:31:46.707Z,47.88
2019-04-19T08:32:51.112Z,48.08
2019-04-19T08:33:55.214Z,46.71
2019-04-19T08:35:05.468Z,48.97
2019-04-19T08:36:07.422Z,46.97
2019-04-19T08:37:18.374Z,46.68
2019-04-19T08:38:19.037Z,47.03
2019-04-19T08:39:32.178Z,47.74
2019-04-19T08:40:40.627Z,46.84
2019-04-19T08:41:46.514Z,46.65
2019-04-19T08:42:47.326Z,47.98
2019-04-19T08:43:52.081Z,47.15
2019-04-19T08:44:49.702Z,47.45
2019-04-19T08:45:42.928Z,47.26
2019-04-19T08:46:47.284Z,48.22
2019-04-19T08:48:05.954Z,47.88
2019-04-19T08:48:59.364Z,48.33
2019-04-19T08:50:05.195Z,48.22
2019-04-19T08:51:05.805Z,47.30
2019-04-19T08:52:12.737Z,48.12
2019-04-19T08:53:31.831Z,46.55
2019-04-19T08:54:38.453Z,46.27
2019-04-19T08:55:40.629Z,46.75
2019-04-19T08:56:38.950Z,46.67
2019-04-19T08:57:32.614Z,47.24
2019-04-19T08:58:53.459Z,46.52
2019-04-19T09:00:03.441Z,47.45
2019-04-19T09:01:09.833Z,47.18
2019-04-19T09:02:07.330Z,46.71
2019-04-19T09:03:03.952Z,46.51
2019-04-19T09:04:20.538Z,46.27
2019-04-19T09:05:18.385Z,45.71
2019-04-19T09:08:34.363Z,47.52
2019-04-19T09:09:48.134Z,47.63
2019-04-19T09:10:53.463Z,46.25
2019-04-19T09:11:52.099Z,45.61
2019-04-19T09:13:05.677Z,46.19
2019-04-19T09:13:55.571Z,46.78
2019-04-19T09:15:01.014Z,45.97
2019-04-19T09:16:07.139Z,46.36
2019-04-19T09:17:13.085Z,45.61
2019-04-19T09:18:36.925Z,46.78
2019-04-19T09:19:25.654Z,46.52
2019-04-19T09:20:25.255Z,47.35
2019-04-19T09:21:22.976Z,46.11
2019-04-19T09:22:29.119Z,47.08
2019-04-19T09:23:28.685Z,46.80
2019-04-19T09:24:34.532Z,47.80
2019-04-19T09:25:39.571Z,49.08
2019-04-19T09:26:45.042Z,48.23
2019-04-19T09:27:55.925Z,46.61
2019-04-19T09:29:10.863Z,46.85
2019-04-19T09:31:04.335Z,49.98
2019-04-19T09:32:02.713Z,47.88
2019-04-19T09:33:01.142Z,47.95
2019-04-19T09:34:07.195Z,47.48
2019-04-19T09:35:09.277Z,46.11
2019-04-19T09:36:13.718Z,46.74
2019-04-19T09:37:23.981Z,48.33
2019-04-19T09:38:29.628Z,48.71
2019-04-19T09:39:38.402Z,48.23
2019-04-19T09:40:35.294Z,48.88
2019-04-19T09:41:38.755Z,48.46
2019-04-19T09:42:46.846Z,47.90
2019-04-19T09:43:52.331Z,47.52
2019-04-19T09:44:49.727Z,48.36
2019-04-19T09:45:53.232Z,48.20
2019-04-19T09:46:55.410Z,47.85
2019-04-19T09:48:01.127Z,47.62
2019-04-19T09:49:15.499Z,46.72
2019-04-19T09:50:26.233Z,47.73
2019-04-19T09:51:33.599Z,46.97
2019-04-19T09:52:57.127Z,45.97
2019-04-19T09:53:58.995Z,47.22
2019-04-19T09:54:52.530Z,45.18
2019-04-19T09:55:49.712Z,46.49
2019-04-19T09:56:52.385Z,46.67
2019-04-19T09:58:00.189Z,46.60
2019-04-19T09:58:57.536Z,47.27
2019-04-19T09:59:58.044Z,46.36
2019-04-19T10:00:55.296Z,45.50
2019-04-19T10:02:00.476Z,47.20
2019-04-19T10:03:08.898Z,45.49
2019-04-19T10:04:07.798Z,46.67
2019-04-19T10:05:10.380Z,46.00
2019-04-19T10:06:15.141Z,46.38
2019-04-19T10:07:19.098Z,45.66
2019-04-19T10:08:23.960Z,46.85
2019-04-19T10:09:28.925Z,46.45
2019-04-19T10:10:33.342Z,45.92
2019-04-19T10:11:37.005Z,47.07
2019-04-19T10:12:41.120Z,45.93
2019-04-19T10:13:46.486Z,44.69
2019-04-19T10:14:49.993Z,45.19
2019-04-19T10:15:54.489Z,46.30
2019-04-19T10:16:58.878Z,46.75
2019-04-19T10:18:03.274Z,45.70
2019-04-19T10:19:08.513Z,46.64
2019-04-19T10:20:12.986Z,44.10
2019-04-19T10:21:22.325Z,46.12
2019-04-19T10:22:20.938Z,45.00
2019-04-19T10:23:25.355Z,45.79
2019-04-19T10:24:29.770Z,45.62
2019-04-19T10:25:35.369Z,45.00
2019-04-19T10:26:38.625Z,45.69
2019-04-19T10:27:43.184Z,46.56
2019-04-19T10:28:48.725Z,46.52
2019-04-19T10:29:51.937Z,46.78
2019-04-19T10:30:56.788Z,46.33
2019-04-19T10:32:00.720Z,47.92
2019-04-19T10:33:05.167Z,46.29
2019-04-19T10:34:10.114Z,46.51
2019-04-19T10:35:13.987Z,47.52
2019-04-19T10:36:18.417Z,46.96
2019-04-19T10:37:23.992Z,46.73
2019-04-19T10:38:27.586Z,47.62
2019-04-19T10:39:32.006Z,47.05
2019-04-19T10:40:37.553Z,47.46
2019-04-19T10:41:40.634Z,47.87
2019-04-19T10:42:45.248Z,45.69
2019-04-19T10:44:01.962Z,46.81
2019-04-19T10:44:54.069Z,44.61
2019-04-19T10:45:58.454Z,46.61
2019-04-19T10:47:03.036Z,46.23
2019-04-19T10:48:07.628Z,46.55
2019-04-19T10:49:19.341Z,45.71
2019-04-19T10:50:27.267Z,44.89
2019-04-19T10:51:21.668Z,44.77
2019-04-19T10:52:25.780Z,44.87
2019-04-19T10:53:30.375Z,44.68
2019-04-19T10:54:33.928Z,46.47
2019-04-19T10:55:38.341Z,47.29
2019-04-19T10:56:43.933Z,46.71
2019-04-19T10:57:47.399Z,47.13
2019-04-19T10:58:52.492Z,46.99
2019-04-19T10:59:56.635Z,47.84
2019-04-19T11:01:01.024Z,47.64
2019-04-19T11:02:06.168Z,46.77
2019-04-19T11:03:10.641Z,45.35
2019-04-19T11:04:15.067Z,44.78
2019-04-19T11:05:18.762Z,46.98
2019-04-19T11:06:23.805Z,48.00
2019-04-19T11:07:27.575Z,47.63
2019-04-19T11:08:32.741Z,46.77
2019-04-19T11:09:35.998Z,48.15
2019-04-19T11:10:40.489Z,46.79
2019-04-19T11:11:45.589Z,46.37
2019-04-19T11:12:50.219Z,45.83
2019-04-19T11:13:54.127Z,46.51
2019-04-19T11:14:58.016Z,47.14
2019-04-19T11:16:02.695Z,48.04
2019-04-19T11:17:07.467Z,47.17
2019-04-19T11:18:11.870Z,46.38
2019-04-19T11:19:20.959Z,47.26
2019-04-19T11:20:31.889Z,46.95
2019-04-19T11:21:25.389Z,47.08
2019-04-19T11:22:29.964Z,46.59
2019-04-19T11:23:33.643Z,46.23
2019-04-19T11:24:39.014Z,46.10
2019-04-19T11:25:45.790Z,46.64
2019-04-19T11:26:47.078Z,47.61
2019-04-19T11:27:53.005Z,47.05
2019-04-19T11:28:56.787Z,47.37
2019-04-19T11:30:00.614Z,44.28
2019-04-19T11:31:04.731Z,44.10
2019-04-19T11:32:10.044Z,44.33
2019-04-19T11:33:14.710Z,45.23
2019-04-19T11:34:17.879Z,45.47
2019-04-19T11:35:23.360Z,44.67
2019-04-19T11:36:26.667Z,45.27
2019-04-19T11:37:31.095Z,44.23
2019-04-19T11:38:36.679Z,46.56
2019-04-19T11:39:41.239Z,44.32
2019-04-19T11:40:44.917Z,45.46
2019-04-19T11:41:49.269Z,45.47
2019-04-19T11:42:53.260Z,45.57
2019-04-19T11:43:57.904Z,44.85
2019-04-19T11:45:01.996Z,42.99
2019-04-19T11:46:06.449Z,44.59
2019-04-19T11:47:11.100Z,43.83
2019-04-19T11:48:15.295Z,42.00
2019-04-19T11:49:28.619Z,44.51
2019-04-19T11:50:25.142Z,44.28
2019-04-19T11:51:29.816Z,44.65
2019-04-19T11:52:33.165Z,43.44
2019-04-19T11:53:38.567Z,44.03
2019-04-19T11:54:42.165Z,44.88
2019-04-19T11:55:46.637Z,45.84
2019-04-19T11:56:55.164Z,45.76
2019-04-19T11:57:55.143Z,44.65
2019-04-19T11:59:00.498Z,44.04
2019-04-19T12:00:04.215Z,42.97
2019-04-19T12:01:08.459Z,42.56
2019-04-19T12:02:13.359Z,42.53
2019-04-19T12:03:18.084Z,43.45
2019-04-19T12:04:21.823Z,43.79
2019-04-19T12:05:29.358Z,42.40
2019-04-19T12:06:30.658Z,43.95
2019-04-19T12:07:35.014Z,44.13
2019-04-19T12:08:42.192Z,43.64
2019-04-19T12:09:44.804Z,43.43
2019-04-19T12:10:48.676Z,44.38
2019-04-19T12:11:53.902Z,45.16
2019-04-19T12:12:57.401Z,45.31
2019-04-19T12:14:01.863Z,44.91
2019-04-19T12:15:06.239Z,44.97
2019-04-19T12:16:10.925Z,44.40
2019-04-19T12:17:15.303Z,44.33
2019-04-19T12:18:20.153Z,45.35
2019-04-19T12:19:36.164Z,44.07
2019-04-19T12:20:28.959Z,44.48
2019-04-19T12:21:33.533Z,44.24
2019-04-19T12:22:37.898Z,43.25
2019-04-19T12:23:41.795Z,43.75
2019-04-19T12:24:46.934Z,43.76
2019-04-19T12:25:51.355Z,43.86
2019-04-19T12:26:55.618Z,44.87
2019-04-19T12:27:59.742Z,43.62
2019-04-19T12:29:06.960Z,44.50
2019-04-19T12:30:09.379Z,43.98
2019-04-19T12:31:13.635Z,44.20
2019-04-19T12:32:17.321Z,43.63
2019-04-19T12:33:21.704Z,44.28
2019-04-19T12:34:26.131Z,43.53
2019-04-19T12:35:31.487Z,43.97
2019-04-19T12:36:35.234Z,43.64
2019-04-19T12:37:40.782Z,44.14
2019-04-19T12:38:44.062Z,42.85
2019-04-19T12:39:48.624Z,43.05
2019-04-19T12:40:54.041Z,45.04
2019-04-19T12:41:57.785Z,43.43
2019-04-19T12:43:02.187Z,44.51
2019-04-19T12:44:06.941Z,44.58
2019-04-19T12:45:10.441Z,43.98
2019-04-19T12:46:14.863Z,42.75
2019-04-19T12:47:19.333Z,42.37
2019-04-19T12:48:23.801Z,42.83
2019-04-19T12:49:28.115Z,42.72
2019-04-19T12:50:35.567Z,42.73
2019-04-19T12:51:36.990Z,41.29
2019-04-19T12:52:42.195Z,42.13
2019-04-19T12:53:47.907Z,41.92
2019-04-19T12:54:50.315Z,41.24
2019-04-19T12:55:56.024Z,42.00
2019-04-19T12:57:00.138Z,41.85
2019-04-19T12:58:04.113Z,41.38
2019-04-19T12:59:09.140Z,41.46
2019-04-19T13:00:12.448Z,41.43
2019-04-19T13:01:17.775Z,41.92
2019-04-19T13:02:22.108Z,42.83
2019-04-19T13:03:25.681Z,42.60
2019-04-19T13:04:30.565Z,42.12
2019-04-19T13:05:35.237Z,41.93
2019-04-19T13:06:39.926Z,41.56
2019-04-19T13:07:43.459Z,40.93
2019-04-19T13:08:47.991Z,42.08
2019-04-19T13:09:53.036Z,42.69
2019-04-19T13:10:56.905Z,42.90
2019-04-19T13:12:01.219Z,41.69
2019-04-19T13:13:05.755Z,41.72
2019-04-19T13:14:10.075Z,41.19
2019-04-19T13:15:15.644Z,41.22
2019-04-19T13:16:18.965Z,41.58
2019-04-19T13:17:24.231Z,41.70
2019-04-19T13:18:28.006Z,41.80
2019-04-19T13:19:33.297Z,42.00
2019-04-19T13:20:37.480Z,42.37
2019-04-19T13:21:41.111Z,41.78
2019-04-19T13:22:46.384Z,41.54
2019-04-19T13:23:50.625Z,42.16
2019-04-19T13:24:55.190Z,42.40
2019-04-19T13:25:59.572Z,42.26
2019-04-19T13:27:03.414Z,43.00
2019-04-19T13:28:07.916Z,42.94
2019-04-19T13:29:13.323Z,41.75
2019-04-19T13:30:25.866Z,42.20
2019-04-19T13:31:20.930Z,42.95
2019-04-19T13:32:25.991Z,43.15
2019-04-19T13:33:30.329Z,42.54
2019-04-19T13:34:34.116Z,42.21
2019-04-19T13:35:39.283Z,41.82
2019-04-19T13:36:43.047Z,43.01
2019-04-19T13:37:47.714Z,42.03
2019-04-19T13:38:52.989Z,42.12
2019-04-19T13:39:56.418Z,42.29
2019-04-19T13:41:00.906Z,42.70
2019-04-19T13:42:05.326Z,42.62
2019-04-19T13:43:10.935Z,42.63
2019-04-19T13:44:14.678Z,43.24
2019-04-19T13:45:26.032Z,43.21
2019-04-19T13:46:22.868Z,42.47
2019-04-19T13:47:27.304Z,43.19
2019-04-19T13:48:32.486Z,42.90
2019-04-19T13:49:36.844Z,43.39
2019-04-19T13:50:42.663Z,43.53
2019-04-19T13:51:44.907Z,43.24
2019-04-19T13:52:49.327Z,42.59
2019-04-19T13:53:54.535Z,43.14
2019-04-19T13:54:58.851Z,42.93
2019-04-19T13:56:02.470Z,42.95
2019-04-19T13:57:07.945Z,42.52
2019-04-19T13:58:11.714Z,43.06
2019-04-19T13:59:16.005Z,42.99
2019-04-19T14:00:20.410Z,43.05
2019-04-19T14:01:24.868Z,43.95
2019-04-19T14:02:29.429Z,43.86
2019-04-19T14:03:33.291Z,43.42
2019-04-19T14:04:37.701Z,42.07
2019-04-19T14:05:42.049Z,41.85
2019-04-19T14:06:46.968Z,42.42
2019-04-19T14:07:50.928Z,41.37
2019-04-19T14:08:55.348Z,41.48
2019-04-19T14:09:59.641Z,40.50
2019-04-19T14:11:04.068Z,41.84
2019-04-19T14:12:09.257Z,41.69
2019-04-19T14:13:12.932Z,40.28
2019-04-19T14:14:18.457Z,41.34
2019-04-19T14:15:22.722Z,41.00
2019-04-19T14:16:26.088Z,41.03